Terminal Aerodrome Forecast
Issued by NWS Louisville, KY

Home | Current Version | Previous Version | Text Only | Print | Product List | Glossary On
Versions: 1 2 3 4 5 6 7 8 9 10 11 12 13 14 15 16 17 18
000
FTUS43 KLMK 240200 AAA
TAFBWG
TAF AMD
KBWG 240218Z 2402/2424 34004KT 4SM -SN SCT005 BKN020
      TEMPO 2402/2406 2SM -SN BKN005
     FM240800 VRB04KT P6SM SCT020 BKN080
     FM241700 25009KT P6SM SCT020=

USA.gov is the U.S. government's official web portal to all federal, state and local government web resources and services.